createdAt,value
2023-05-17T00:00:31.164Z,6.62
2023-05-17T00:01:31.112Z,6.66
2023-05-17T00:02:31.150Z,6.64
2023-05-17T00:03:31.075Z,6.61
2023-05-17T00:04:31.070Z,6.58
2023-05-17T00:05:31.046Z,6.56
2023-05-17T00:06:31.094Z,6.58
2023-05-17T00:07:31.037Z,6.59
2023-05-17T00:08:31.007Z,6.62
2023-05-17T00:09:31.001Z,6.58
2023-05-17T00:10:30.994Z,6.56
2023-05-17T00:11:30.969Z,6.56
2023-05-17T00:12:30.971Z,6.59
2023-05-17T00:13:30.952Z,6.58
2023-05-17T00:14:30.953Z,6.54
2023-05-17T00:15:30.918Z,6.54
2023-05-17T00:16:30.909Z,6.54
2023-05-17T00:17:30.969Z,6.59
2023-05-17T00:18:30.954Z,6.61
2023-05-17T00:19:30.971Z,6.59
2023-05-17T00:20:30.858Z,6.59
2023-05-17T00:21:30.882Z,6.59
2023-05-17T00:22:30.854Z,6.59
2023-05-17T00:23:30.809Z,6.58
2023-05-17T00:24:30.788Z,6.54
2023-05-17T00:25:31.008Z,6.58
2023-05-17T00:26:30.784Z,6.55
2023-05-17T00:27:30.791Z,6.51
2023-05-17T00:28:30.764Z,6.51
2023-05-17T00:29:30.763Z,6.49
2023-05-17T00:30:30.782Z,6.51
2023-05-17T00:31:30.711Z,6.49
2023-05-17T00:32:30.816Z,6.54
2023-05-17T00:33:30.693Z,6.51
2023-05-17T00:34:30.698Z,6.51
2023-05-17T00:35:30.813Z,6.52
2023-05-17T00:36:30.656Z,6.51
2023-05-17T00:37:30.669Z,6.52
2023-05-17T00:38:30.696Z,6.51
2023-05-17T00:39:30.607Z,6.48
2023-05-17T00:40:30.613Z,6.43
2023-05-17T00:41:30.588Z,6.44
2023-05-17T00:42:30.595Z,6.43
2023-05-17T00:43:30.547Z,6.37
2023-05-17T00:44:30.543Z,6.38
2023-05-17T00:45:30.632Z,6.36
2023-05-17T00:46:30.535Z,6.36
2023-05-17T00:47:30.530Z,6.36
2023-05-17T00:48:30.641Z,6.37
2023-05-17T00:49:30.518Z,6.36
2023-05-17T00:50:30.467Z,6.33
2023-05-17T00:51:30.459Z,6.31
2023-05-17T00:52:30.456Z,6.33
2023-05-17T00:53:30.418Z,6.38
2023-05-17T00:54:30.423Z,6.36
2023-05-17T00:55:30.525Z,6.34
2023-05-17T00:56:30.380Z,6.33
2023-05-17T00:57:30.364Z,6.37
2023-05-17T00:58:30.353Z,6.33
2023-05-17T00:59:30.386Z,6.36
2023-05-17T01:00:30.334Z,6.30
2023-05-17T01:01:30.310Z,6.28
2023-05-17T01:02:30.386Z,6.31
2023-05-17T01:03:30.365Z,6.37
2023-05-17T01:04:30.423Z,6.33
2023-05-17T01:05:30.520Z,6.33
2023-05-17T01:06:30.267Z,6.36
2023-05-17T01:07:30.241Z,6.40
2023-05-17T01:08:30.248Z,6.40
2023-05-17T01:09:30.210Z,6.41
2023-05-17T01:10:30.213Z,6.43
2023-05-17T01:11:30.178Z,6.40
2023-05-17T01:12:30.200Z,6.40
2023-05-17T01:13:30.198Z,6.36
2023-05-17T01:14:30.151Z,6.37
2023-05-17T01:15:30.300Z,6.34
2023-05-17T01:16:30.120Z,6.31
2023-05-17T01:17:30.197Z,6.34
2023-05-17T01:18:30.192Z,6.25
2023-05-17T01:19:30.250Z,6.30
2023-05-17T01:20:30.121Z,6.30
2023-05-17T01:21:30.073Z,6.33
2023-05-17T01:22:30.040Z,6.33
2023-05-17T01:23:30.019Z,6.28
2023-05-17T01:24:30.018Z,6.30
2023-05-17T01:25:30.179Z,6.36
2023-05-17T01:26:29.999Z,6.37
2023-05-17T01:27:29.995Z,6.36
2023-05-17T01:28:37.524Z,6.37
2023-05-17T01:29:29.973Z,6.40
2023-05-17T01:30:29.939Z,6.33
2023-05-17T01:31:29.931Z,6.36
2023-05-17T01:32:30.010Z,6.31
2023-05-17T01:33:29.980Z,6.31
2023-05-17T01:34:29.904Z,6.28
2023-05-17T01:35:30.075Z,6.28
2023-05-17T01:36:29.905Z,6.28
2023-05-17T01:37:29.858Z,6.22
2023-05-17T01:38:29.857Z,6.25
2023-05-17T01:39:29.818Z,6.18
2023-05-17T01:40:29.818Z,6.15
2023-05-17T01:41:29.817Z,6.17
2023-05-17T01:42:29.813Z,6.17
2023-05-17T01:43:29.801Z,6.17
2023-05-17T01:44:31.324Z,6.21
2023-05-17T01:45:29.998Z,6.19
2023-05-17T01:46:29.738Z,6.15
2023-05-17T01:47:29.748Z,6.17
2023-05-17T01:48:29.724Z,6.15
2023-05-17T01:49:29.703Z,6.18
2023-05-17T01:50:29.683Z,6.21
2023-05-17T01:51:29.666Z,6.21
2023-05-17T01:52:29.663Z,6.25
2023-05-17T01:53:29.660Z,6.22
2023-05-17T01:54:29.626Z,6.19
2023-05-17T01:55:29.793Z,6.14
2023-05-17T01:56:29.619Z,6.09
2023-05-17T01:57:29.612Z,6.11
2023-05-17T01:58:29.578Z,6.08
2023-05-17T01:59:29.602Z,6.06
2023-05-17T02:00:29.556Z,6.04
2023-05-17T02:01:29.582Z,6.01
2023-05-17T02:02:29.603Z,5.97
2023-05-17T02:03:29.552Z,6.00
2023-05-17T02:04:29.535Z,5.96
2023-05-17T02:05:29.790Z,5.94
2023-05-17T02:06:29.465Z,5.96
2023-05-17T02:07:29.467Z,5.93
2023-05-17T02:08:29.486Z,5.94
2023-05-17T02:09:29.452Z,6.00
2023-05-17T02:10:29.421Z,5.99
2023-05-17T02:11:29.405Z,6.00
2023-05-17T02:12:29.397Z,5.99
2023-05-17T02:13:29.387Z,5.99
2023-05-17T02:14:29.379Z,6.04
2023-05-17T02:15:29.502Z,6.01
2023-05-17T02:16:29.347Z,6.00
2023-05-17T02:17:29.404Z,6.00
2023-05-17T02:18:29.539Z,6.03
2023-05-17T02:19:29.339Z,6.03
2023-05-17T02:20:29.322Z,6.03
2023-05-17T02:21:29.264Z,6.08
2023-05-17T02:22:29.261Z,6.04
2023-05-17T02:23:29.262Z,6.06
2023-05-17T02:24:29.240Z,6.03
2023-05-17T02:25:29.412Z,5.96
2023-05-17T02:26:29.232Z,5.94
2023-05-17T02:27:29.197Z,5.96
2023-05-17T02:28:29.182Z,5.91
2023-05-17T02:29:29.184Z,5.91
2023-05-17T02:30:29.195Z,5.93
2023-05-17T02:31:29.151Z,5.89
2023-05-17T02:32:29.308Z,5.86
2023-05-17T02:33:29.215Z,5.89
2023-05-17T02:34:29.112Z,5.86
2023-05-17T02:35:29.350Z,5.82
2023-05-17T02:36:29.092Z,5.82
2023-05-17T02:37:29.063Z,5.81
2023-05-17T02:38:29.065Z,5.82
2023-05-17T02:39:29.040Z,5.83
2023-05-17T02:40:29.052Z,5.82
2023-05-17T02:41:29.046Z,5.83
2023-05-17T02:42:28.996Z,5.86
2023-05-17T02:43:29.034Z,5.85
2023-05-17T02:44:29.000Z,5.85
2023-05-17T02:45:29.250Z,5.81
2023-05-17T02:46:28.962Z,5.79
2023-05-17T02:47:29.079Z,5.81
2023-05-17T02:48:29.013Z,5.78
2023-05-17T02:49:28.918Z,5.75
2023-05-17T02:50:28.889Z,5.78
2023-05-17T02:51:28.896Z,5.75
2023-05-17T02:52:28.908Z,5.79
2023-05-17T02:53:28.894Z,5.78
2023-05-17T02:54:28.835Z,5.79
2023-05-17T02:55:29.112Z,5.78
2023-05-17T02:56:28.814Z,5.76
2023-05-17T02:57:28.812Z,5.78
2023-05-17T02:58:28.811Z,5.74
2023-05-17T02:59:28.786Z,5.82
2023-05-17T03:00:28.790Z,5.81
2023-05-17T03:01:28.791Z,5.85
2023-05-17T03:02:28.787Z,5.93
2023-05-17T03:03:28.915Z,5.96
2023-05-17T03:04:28.761Z,5.96
2023-05-17T03:05:28.951Z,5.97
2023-05-17T03:06:28.804Z,6.03
2023-05-17T03:07:28.734Z,6.06
2023-05-17T03:08:28.706Z,6.08
2023-05-17T03:09:28.702Z,6.14
2023-05-17T03:10:28.646Z,6.14
2023-05-17T03:11:29.583Z,6.19
2023-05-17T03:12:29.680Z,6.27
2023-05-17T03:13:28.623Z,6.30
2023-05-17T03:14:28.572Z,6.33
2023-05-17T03:15:28.726Z,6.34
2023-05-17T03:16:28.548Z,6.38
2023-05-17T03:17:28.627Z,6.44
2023-05-17T03:18:28.700Z,6.48
2023-05-17T03:19:28.579Z,6.48
2023-05-17T03:20:28.616Z,6.52
2023-05-17T03:21:28.589Z,6.54
2023-05-17T03:22:28.469Z,6.54
2023-05-17T03:23:28.493Z,6.58
2023-05-17T03:24:28.442Z,6.59
2023-05-17T03:25:28.750Z,6.62
2023-05-17T03:26:28.442Z,6.70
2023-05-17T03:27:28.413Z,6.73
2023-05-17T03:28:28.394Z,6.77
2023-05-17T03:29:28.402Z,6.84
2023-05-17T03:30:28.385Z,6.91
2023-05-17T03:31:28.371Z,6.97
2023-05-17T03:32:28.409Z,7.02
2023-05-17T03:33:28.394Z,7.05
2023-05-17T03:34:28.350Z,7.06
2023-05-17T03:35:28.682Z,7.13
2023-05-17T03:36:28.340Z,7.16
2023-05-17T03:37:28.314Z,7.20
2023-05-17T03:38:28.259Z,7.24
2023-05-17T03:39:28.280Z,7.31
2023-05-17T03:40:28.233Z,7.31
2023-05-17T03:41:28.223Z,7.40
2023-05-17T03:42:28.258Z,7.57
2023-05-17T03:43:28.196Z,7.68
2023-05-17T03:44:28.191Z,7.80
2023-05-17T03:45:28.482Z,7.89
2023-05-17T03:46:28.156Z,7.98
2023-05-17T03:47:28.211Z,8.00
2023-05-17T03:48:28.204Z,8.08
2023-05-17T03:49:28.120Z,8.12
2023-05-17T03:50:28.122Z,8.15
2023-05-17T03:51:28.125Z,8.16
2023-05-17T03:52:28.102Z,8.18
2023-05-17T03:53:28.111Z,8.20
2023-05-17T03:54:28.049Z,8.25
2023-05-17T03:55:28.254Z,8.25
2023-05-17T03:56:28.043Z,8.26
2023-05-17T03:57:28.070Z,8.29
2023-05-17T03:58:28.027Z,8.34
2023-05-17T03:59:28.012Z,8.34
2023-05-17T04:00:27.979Z,8.37
2023-05-17T04:01:28.006Z,8.37
2023-05-17T04:02:27.965Z,8.40
2023-05-17T04:03:27.966Z,8.43
2023-05-17T04:04:28.028Z,8.45
2023-05-17T04:05:28.222Z,8.44
2023-05-17T04:06:27.906Z,8.47
2023-05-17T04:07:27.944Z,8.47
2023-05-17T04:08:27.903Z,8.47
2023-05-17T04:09:27.911Z,8.55
2023-05-17T04:10:27.877Z,8.55
2023-05-17T04:11:27.843Z,8.59
2023-05-17T04:12:27.827Z,8.58
2023-05-17T04:13:27.863Z,8.63
2023-05-17T04:14:27.860Z,8.58
2023-05-17T04:15:28.001Z,8.62
2023-05-17T04:16:27.795Z,8.63
2023-05-17T04:17:27.817Z,8.62
2023-05-17T04:18:27.784Z,8.61
2023-05-17T04:19:27.907Z,8.61
2023-05-17T04:20:27.772Z,8.61
2023-05-17T04:21:27.723Z,8.56
2023-05-17T04:22:27.728Z,8.59
2023-05-17T04:23:27.723Z,8.56
2023-05-17T04:24:27.704Z,8.61
2023-05-17T04:25:27.969Z,8.58
2023-05-17T04:26:27.683Z,8.58
2023-05-17T04:27:27.698Z,8.61
2023-05-17T04:28:27.646Z,8.62
2023-05-17T04:29:27.682Z,8.65
2023-05-17T04:30:27.633Z,8.70
2023-05-17T04:31:27.614Z,8.70
2023-05-17T04:32:27.620Z,8.73
2023-05-17T04:33:27.676Z,8.74
2023-05-17T04:34:27.595Z,8.76
2023-05-17T04:35:27.872Z,8.76
2023-05-17T04:36:27.547Z,8.73
2023-05-17T04:37:27.576Z,8.74
2023-05-17T04:38:27.553Z,8.74
2023-05-17T04:39:29.434Z,8.76
2023-05-17T04:40:27.512Z,8.77
2023-05-17T04:41:27.492Z,8.77
2023-05-17T04:42:27.481Z,8.79
2023-05-17T04:43:27.465Z,8.83
2023-05-17T04:44:27.452Z,8.84
2023-05-17T04:45:27.641Z,8.84
2023-05-17T04:46:27.428Z,8.86
2023-05-17T04:47:27.525Z,8.87
2023-05-17T04:48:27.503Z,8.91
2023-05-17T04:49:27.478Z,8.89
2023-05-17T04:50:27.376Z,8.92
2023-05-17T04:51:27.448Z,8.95
2023-05-17T04:52:27.374Z,8.98
2023-05-17T04:53:27.351Z,9.02
2023-05-17T04:54:27.357Z,9.01
2023-05-17T04:55:27.538Z,9.08
2023-05-17T04:56:27.304Z,9.10
2023-05-17T04:57:27.313Z,9.18
2023-05-17T04:58:27.270Z,9.13
2023-05-17T04:59:27.262Z,9.10
2023-05-17T05:00:27.272Z,9.14
2023-05-17T05:01:27.323Z,9.21
2023-05-17T05:02:27.249Z,9.20
2023-05-17T05:03:27.262Z,9.28
2023-05-17T05:04:27.227Z,9.23
2023-05-17T05:05:27.329Z,9.33
2023-05-17T05:06:27.210Z,9.40
2023-05-17T05:07:27.163Z,9.46
2023-05-17T05:08:27.187Z,9.46
2023-05-17T05:09:27.169Z,9.50
2023-05-17T05:10:27.182Z,9.60
2023-05-17T05:11:27.134Z,9.58
2023-05-17T05:12:27.112Z,9.61
2023-05-17T05:13:27.098Z,9.69
2023-05-17T05:14:27.095Z,9.68
2023-05-17T05:15:27.237Z,9.74
2023-05-17T05:16:27.095Z,9.83
2023-05-17T05:17:27.135Z,9.93
2023-05-17T05:18:27.087Z,10.08
2023-05-17T05:19:27.067Z,10.15
2023-05-17T05:20:28.133Z,10.18
2023-05-17T05:21:27.032Z,10.15
2023-05-17T05:22:26.994Z,10.14
2023-05-17T05:23:26.965Z,10.12
2023-05-17T05:24:26.988Z,10.12
2023-05-17T05:25:27.154Z,10.08
2023-05-17T05:26:26.941Z,9.99
2023-05-17T05:27:26.913Z,9.94
2023-05-17T05:28:26.943Z,9.97
2023-05-17T05:29:26.878Z,10.07
2023-05-17T05:30:26.916Z,10.08
2023-05-17T05:31:26.896Z,10.14
2023-05-17T05:32:26.895Z,10.22
2023-05-17T05:33:26.905Z,10.22
2023-05-17T05:34:26.809Z,10.27
2023-05-17T05:35:27.004Z,10.30
2023-05-17T05:36:26.816Z,10.32
2023-05-17T05:37:26.776Z,10.38
2023-05-17T05:38:26.762Z,10.47
2023-05-17T05:39:26.800Z,10.52
2023-05-17T05:40:27.003Z,10.53
2023-05-17T05:41:26.766Z,10.56
2023-05-17T05:42:26.746Z,10.48
2023-05-17T05:43:26.710Z,10.47
2023-05-17T05:44:26.707Z,10.55
2023-05-17T05:45:26.742Z,10.64
2023-05-17T05:46:26.666Z,10.67
2023-05-17T05:47:27.359Z,10.68
2023-05-17T05:48:26.723Z,10.67
2023-05-17T05:49:26.637Z,10.63
2023-05-17T05:50:26.752Z,10.60
2023-05-17T05:51:26.811Z,10.60
2023-05-17T05:52:26.572Z,10.63
2023-05-17T05:53:26.605Z,10.64
2023-05-17T05:54:26.566Z,10.61
2023-05-17T05:55:26.580Z,10.63
2023-05-17T05:56:26.563Z,10.61
2023-05-17T05:57:28.499Z,10.63
2023-05-17T05:58:26.515Z,10.71
2023-05-17T05:59:26.614Z,10.81
2023-05-17T06:00:26.548Z,10.92
2023-05-17T06:01:26.495Z,10.96
2023-05-17T06:02:26.530Z,11.00
2023-05-17T06:03:26.449Z,11.07
2023-05-17T06:04:36.349Z,10.99
2023-05-17T06:05:27.437Z,10.94
2023-05-17T06:06:26.536Z,10.89
2023-05-17T06:07:26.421Z,10.85
2023-05-17T06:08:26.423Z,10.84
2023-05-17T06:09:26.364Z,10.81
2023-05-17T06:10:26.450Z,10.79
2023-05-17T06:11:26.355Z,10.79
2023-05-17T06:12:26.380Z,10.78
2023-05-17T06:13:26.347Z,10.79
2023-05-17T06:14:26.282Z,10.82
2023-05-17T06:15:26.263Z,10.86
2023-05-17T06:16:26.270Z,10.89
2023-05-17T06:17:26.280Z,10.97
2023-05-17T06:18:26.494Z,11.00
2023-05-17T06:19:26.471Z,11.00
2023-05-17T06:20:26.322Z,11.06
2023-05-17T06:21:26.205Z,11.15
2023-05-17T06:22:26.274Z,11.15
2023-05-17T06:23:26.231Z,11.07
2023-05-17T06:24:26.196Z,11.04
2023-05-17T06:25:26.143Z,11.06
2023-05-17T06:26:26.180Z,11.10
2023-05-17T06:27:26.209Z,11.07
2023-05-17T06:28:26.287Z,11.07
2023-05-17T06:29:27.074Z,11.17
2023-05-17T06:30:26.245Z,11.21
2023-05-17T06:31:26.182Z,11.22
2023-05-17T06:32:26.086Z,11.28
2023-05-17T06:33:26.188Z,11.18
2023-05-17T06:34:26.014Z,11.09
2023-05-17T06:35:26.376Z,11.04
2023-05-17T06:36:26.015Z,11.02
2023-05-17T06:37:25.972Z,11.04
2023-05-17T06:38:25.984Z,11.14
2023-05-17T06:39:25.956Z,11.11
2023-05-17T06:40:26.019Z,11.03
2023-05-17T06:41:25.942Z,10.89
2023-05-17T06:42:25.913Z,10.91
2023-05-17T06:43:25.923Z,10.92
2023-05-17T06:44:25.861Z,11.02
2023-05-17T06:45:25.854Z,11.02
2023-05-17T06:46:25.848Z,11.03
2023-05-17T06:47:25.935Z,11.09
2023-05-17T06:48:25.991Z,11.06
2023-05-17T06:49:25.854Z,11.10
2023-05-17T06:50:25.813Z,11.11
2023-05-17T06:51:25.844Z,11.22
2023-05-17T06:52:25.802Z,11.25
2023-05-17T06:53:25.763Z,11.32
2023-05-17T06:54:25.722Z,11.39
2023-05-17T06:55:25.724Z,11.44
2023-05-17T06:56:25.698Z,11.40
2023-05-17T06:57:25.723Z,11.40
2023-05-17T06:58:25.654Z,11.46
2023-05-17T06:59:25.670Z,11.55
2023-05-17T07:00:25.672Z,11.52
2023-05-17T07:01:25.648Z,11.49
2023-05-17T07:02:25.694Z,11.49
2023-05-17T07:03:25.708Z,11.51
2023-05-17T07:04:25.649Z,11.61
2023-05-17T07:05:25.697Z,11.75
2023-05-17T07:06:25.577Z,11.76
2023-05-17T07:07:25.604Z,11.83
2023-05-17T07:08:25.575Z,11.88
2023-05-17T07:09:25.508Z,11.75
2023-05-17T07:10:25.593Z,11.76
2023-05-17T07:11:26.473Z,11.82
2023-05-17T07:12:25.475Z,11.86
2023-05-17T07:13:25.500Z,11.78
2023-05-17T07:14:25.452Z,11.94
2023-05-17T07:15:25.492Z,12.14
2023-05-17T07:16:25.424Z,12.01
2023-05-17T07:17:25.457Z,11.96
2023-05-17T07:18:25.490Z,11.94
2023-05-17T07:19:25.581Z,11.85
2023-05-17T07:20:25.425Z,11.85
2023-05-17T07:21:25.341Z,11.67
2023-05-17T07:22:25.351Z,11.67
2023-05-17T07:23:25.348Z,11.69
2023-05-17T07:24:25.338Z,11.65
2023-05-17T07:25:25.346Z,11.72
2023-05-17T07:26:25.306Z,11.75
2023-05-17T07:27:25.294Z,11.78
2023-05-17T07:28:25.266Z,11.73
2023-05-17T07:29:25.228Z,11.73
2023-05-17T07:30:25.232Z,11.76
2023-05-17T07:31:26.218Z,11.76
2023-05-17T07:32:25.455Z,11.72
2023-05-17T07:33:25.318Z,11.80
2023-05-17T07:34:25.220Z,11.90
2023-05-17T07:35:25.171Z,11.99
2023-05-17T07:36:25.223Z,11.98
2023-05-17T07:37:25.154Z,12.09
2023-05-17T07:38:25.125Z,12.14
2023-05-17T07:39:25.107Z,12.16
2023-05-17T07:40:25.236Z,12.04
2023-05-17T07:41:25.091Z,12.10
2023-05-17T07:42:25.078Z,12.13
2023-05-17T07:43:25.048Z,12.19
2023-05-17T07:44:25.079Z,12.28
2023-05-17T07:45:25.031Z,12.41
2023-05-17T07:46:25.092Z,12.46
2023-05-17T07:47:25.024Z,12.49
2023-05-17T07:48:25.059Z,12.38
2023-05-17T07:49:25.018Z,12.39
2023-05-17T07:50:25.006Z,12.37
2023-05-17T07:51:25.096Z,12.37
2023-05-17T07:52:24.946Z,12.35
2023-05-17T07:53:25.866Z,12.31
2023-05-17T07:54:24.913Z,12.24
2023-05-17T07:55:24.908Z,12.21
2023-05-17T07:56:24.896Z,12.27
2023-05-17T07:57:24.851Z,12.20
2023-05-17T07:58:24.829Z,12.12
2023-05-17T07:59:24.825Z,12.09
2023-05-17T08:00:24.811Z,12.09
2023-05-17T08:01:24.801Z,12.16
2023-05-17T08:02:24.821Z,12.16
2023-05-17T08:03:24.750Z,12.17
2023-05-17T08:04:24.841Z,12.24
2023-05-17T08:05:24.769Z,12.20
2023-05-17T08:06:24.861Z,12.20
2023-05-17T08:07:24.707Z,12.20
2023-05-17T08:08:24.734Z,12.28
2023-05-17T08:09:24.667Z,12.35
2023-05-17T08:10:24.696Z,12.35
2023-05-17T08:11:24.661Z,12.32
2023-05-17T08:12:24.653Z,12.29
2023-05-17T08:13:24.615Z,12.31
2023-05-17T08:14:24.611Z,12.24
2023-05-17T08:15:24.655Z,12.20
2023-05-17T08:16:24.620Z,12.07
2023-05-17T08:17:24.625Z,11.86
2023-05-17T08:18:24.634Z,11.82
2023-05-17T08:19:24.611Z,11.85
2023-05-17T08:20:24.616Z,11.82
2023-05-17T08:21:24.481Z,11.79
2023-05-17T08:22:24.486Z,11.75
2023-05-17T08:23:24.455Z,11.75
2023-05-17T08:24:24.498Z,11.73
2023-05-17T08:25:24.449Z,11.75
2023-05-17T08:26:24.480Z,11.79
2023-05-17T08:27:24.497Z,11.75
2023-05-17T08:28:24.402Z,11.76
2023-05-17T08:29:24.404Z,11.78
2023-05-17T08:31:24.403Z,11.73
2023-05-17T08:32:24.381Z,11.73
2023-05-17T08:33:24.380Z,11.83
2023-05-17T08:34:24.381Z,11.90
2023-05-17T08:35:26.929Z,12.07
2023-05-17T08:36:24.310Z,12.20
2023-05-17T08:37:24.295Z,12.34
2023-05-17T08:38:24.285Z,12.57
2023-05-17T08:39:24.246Z,12.78
2023-05-17T08:40:24.302Z,12.93
2023-05-17T08:41:24.261Z,13.08
2023-05-17T08:42:24.227Z,13.22
2023-05-17T08:43:25.999Z,13.33
2023-05-17T08:44:24.190Z,13.28
2023-05-17T08:45:24.225Z,13.28
2023-05-17T08:46:24.180Z,13.19
2023-05-17T08:47:24.190Z,13.00
2023-05-17T08:48:24.234Z,12.92
2023-05-17T08:49:24.127Z,12.93
2023-05-17T08:50:24.132Z,13.03
2023-05-17T08:51:24.063Z,12.97
2023-05-17T08:52:24.058Z,12.97
2023-05-17T08:53:24.165Z,12.96
2023-05-17T08:54:38.772Z,12.77
2023-05-17T08:55:24.018Z,12.62
2023-05-17T08:56:23.973Z,12.62
2023-05-17T08:57:24.007Z,12.79
2023-05-17T08:58:23.968Z,12.86
2023-05-17T08:59:24.035Z,13.04
2023-05-17T09:00:24.014Z,13.10
2023-05-17T09:01:26.512Z,13.15
2023-05-17T09:02:24.008Z,13.10
2023-05-17T09:03:24.120Z,13.01
2023-05-17T09:04:23.965Z,12.87
2023-05-17T09:05:24.018Z,12.72
2023-05-17T09:06:23.924Z,12.57
2023-05-17T09:07:23.872Z,12.52
2023-05-17T09:08:23.832Z,12.53
2023-05-17T09:09:23.870Z,12.54
2023-05-17T09:10:23.828Z,12.54
2023-05-17T09:11:23.788Z,12.56
2023-05-17T09:12:25.636Z,12.62
2023-05-17T09:13:23.764Z,12.78
2023-05-17T09:14:23.750Z,13.01
2023-05-17T09:15:23.736Z,13.23
2023-05-17T09:16:23.739Z,13.39
2023-05-17T09:17:23.743Z,13.64
2023-05-17T09:18:23.783Z,13.73
2023-05-17T09:19:23.777Z,13.87
2023-05-17T09:20:23.672Z,14.10
2023-05-17T09:21:23.663Z,14.09
2023-05-17T09:22:23.651Z,14.07
2023-05-17T09:23:23.656Z,13.79
2023-05-17T09:24:25.151Z,13.70
2023-05-17T09:25:23.565Z,13.48
2023-05-17T09:26:23.642Z,13.15
2023-05-17T09:27:23.595Z,13.04
2023-05-17T09:28:23.582Z,13.07
2023-05-17T09:29:23.558Z,13.15
2023-05-17T09:30:25.141Z,13.25
2023-05-17T09:31:23.619Z,13.30
2023-05-17T09:32:23.530Z,13.42
2023-05-17T09:33:23.516Z,13.60
2023-05-17T09:34:23.478Z,13.77
2023-05-17T09:35:23.437Z,13.92
2023-05-17T09:36:23.518Z,14.12
2023-05-17T09:37:23.413Z,14.22
2023-05-17T09:38:24.897Z,14.24
2023-05-17T09:39:23.409Z,14.37
2023-05-17T09:40:23.477Z,14.40
2023-05-17T09:41:23.506Z,14.04
2023-05-17T09:42:23.381Z,13.66
2023-05-17T09:43:23.342Z,13.42
2023-05-17T09:44:23.546Z,13.38
2023-05-17T09:45:23.320Z,13.45
2023-05-17T09:46:23.319Z,13.46
2023-05-17T09:47:23.306Z,13.59
2023-05-17T09:48:23.377Z,13.71
2023-05-17T09:49:23.262Z,13.78
2023-05-17T09:50:25.983Z,13.88
2023-05-17T09:51:23.224Z,14.02
2023-05-17T09:52:23.281Z,14.04
2023-05-17T09:53:23.266Z,14.09
2023-05-17T09:54:23.244Z,14.14
2023-05-17T09:55:23.222Z,14.12
2023-05-17T09:56:23.190Z,14.07
2023-05-17T09:57:23.163Z,14.06
2023-05-17T09:58:23.185Z,14.02
2023-05-17T09:59:23.202Z,14.15
2023-05-17T10:00:23.143Z,14.18
2023-05-17T10:01:23.149Z,14.37
2023-05-17T10:02:23.215Z,14.40
2023-05-17T10:03:23.173Z,14.47
2023-05-17T10:04:23.112Z,14.46
2023-05-17T10:05:23.122Z,14.35
2023-05-17T10:06:38.485Z,14.35
2023-05-17T10:07:24.075Z,14.33
2023-05-17T10:08:23.089Z,14.15
2023-05-17T10:09:23.235Z,14.00
2023-05-17T10:10:23.020Z,13.87
2023-05-17T10:11:22.994Z,13.69
2023-05-17T10:12:23.808Z,13.70
2023-05-17T10:13:22.946Z,13.67
2023-05-17T10:14:23.416Z,13.79
2023-05-17T10:15:22.952Z,13.99
2023-05-17T10:16:23.087Z,14.04
2023-05-17T10:17:22.888Z,14.22
2023-05-17T10:18:23.230Z,14.15
2023-05-17T10:19:22.987Z,14.02
2023-05-17T10:20:22.961Z,13.75
2023-05-17T10:21:22.833Z,13.69
2023-05-17T10:22:23.881Z,13.71
2023-05-17T10:23:22.945Z,13.66
2023-05-17T10:24:22.788Z,13.49
2023-05-17T10:25:22.833Z,13.55
2023-05-17T10:26:22.807Z,13.66
2023-05-17T10:27:22.825Z,13.84
2023-05-17T10:28:22.794Z,14.06
2023-05-17T10:29:22.836Z,14.24
2023-05-17T10:30:22.700Z,14.35
2023-05-17T10:31:22.715Z,14.37
2023-05-17T10:32:22.829Z,14.28
2023-05-17T10:33:22.794Z,14.35
2023-05-17T10:34:22.886Z,14.54
2023-05-17T10:35:22.734Z,14.65
2023-05-17T10:36:22.679Z,14.55
2023-05-17T10:37:22.632Z,14.70
2023-05-17T10:38:26.293Z,14.68
2023-05-17T10:39:23.657Z,14.60
2023-05-17T10:40:23.035Z,14.65
2023-05-17T10:41:22.833Z,14.81
2023-05-17T10:42:22.693Z,14.94
2023-05-17T10:43:22.686Z,15.10
2023-05-17T10:44:22.534Z,15.16
2023-05-17T10:45:22.584Z,15.17
2023-05-17T10:46:22.601Z,15.31
2023-05-17T10:47:22.738Z,15.31
2023-05-17T10:48:22.705Z,15.41
2023-05-17T10:49:24.757Z,15.29
2023-05-17T10:50:22.484Z,15.11
2023-05-17T10:51:22.590Z,15.19
2023-05-17T10:52:22.505Z,15.41
2023-05-17T10:53:23.371Z,15.51
2023-05-17T10:54:22.462Z,15.56
2023-05-17T10:55:22.378Z,15.49
2023-05-17T10:56:23.092Z,15.31
2023-05-17T10:57:22.444Z,15.29
2023-05-17T10:58:22.390Z,15.35
2023-05-17T10:59:22.403Z,15.13
2023-05-17T11:00:22.369Z,14.61
2023-05-17T11:01:22.460Z,14.22
2023-05-17T11:02:22.332Z,14.09
2023-05-17T11:03:22.362Z,14.45
2023-05-17T11:04:22.357Z,14.58
2023-05-17T11:05:22.402Z,14.70
2023-05-17T11:06:25.597Z,14.98
2023-05-17T11:07:22.470Z,15.09
2023-05-17T11:08:22.401Z,14.91
2023-05-17T11:09:22.254Z,14.83
2023-05-17T11:10:22.250Z,14.64
2023-05-17T11:11:22.276Z,14.81
2023-05-17T11:12:22.225Z,14.51
2023-05-17T11:13:22.249Z,14.28
2023-05-17T11:14:22.232Z,14.32
2023-05-17T11:15:22.356Z,14.68
2023-05-17T11:16:22.143Z,15.09
2023-05-17T11:17:22.162Z,15.36
2023-05-17T11:18:30.038Z,15.02
2023-05-17T11:19:23.176Z,15.23
2023-05-17T11:20:22.211Z,15.51
2023-05-17T11:21:22.119Z,15.86
2023-05-17T11:22:22.425Z,16.20
2023-05-17T11:23:22.051Z,16.76
2023-05-17T11:24:22.397Z,17.30
2023-05-17T11:25:22.210Z,17.75
2023-05-17T11:26:22.080Z,17.21
2023-05-17T11:27:22.976Z,16.64
2023-05-17T11:28:22.850Z,16.24
2023-05-17T11:29:21.963Z,16.09
2023-05-17T11:30:21.917Z,16.52
2023-05-17T11:31:22.220Z,17.25
2023-05-17T11:32:21.936Z,17.81
2023-05-17T11:33:33.079Z,17.93
2023-05-17T11:34:22.872Z,18.17
2023-05-17T11:35:22.025Z,18.78
2023-05-17T11:36:21.929Z,19.08
2023-05-17T11:37:21.843Z,19.23
2023-05-17T11:38:21.820Z,18.14
2023-05-17T11:39:21.798Z,17.19
2023-05-17T11:40:21.772Z,16.43
2023-05-17T11:42:21.758Z,15.36
2023-05-17T11:43:21.778Z,15.72
2023-05-17T11:44:21.792Z,16.28
2023-05-17T11:45:24.794Z,16.97
2023-05-17T11:46:21.766Z,17.40
2023-05-17T11:47:21.855Z,17.14
2023-05-17T11:48:21.769Z,17.78
2023-05-17T11:49:34.365Z,18.51
2023-05-17T11:50:22.710Z,18.98
2023-05-17T11:51:24.622Z,19.08
2023-05-17T11:52:21.660Z,19.22
2023-05-17T11:53:21.676Z,17.89
2023-05-17T11:54:21.643Z,16.75
2023-05-17T11:55:22.546Z,16.08
2023-05-17T11:56:26.465Z,15.67
2023-05-17T11:57:22.547Z,16.41
2023-05-17T11:58:21.531Z,17.19
2023-05-17T11:59:21.576Z,17.56
2023-05-17T12:00:21.553Z,17.46
2023-05-17T12:01:21.600Z,17.93
2023-05-17T12:02:21.504Z,17.74
2023-05-17T12:03:21.474Z,18.44
2023-05-17T12:04:21.467Z,18.10
2023-05-17T12:05:21.460Z,17.33
2023-05-17T12:06:21.475Z,16.98
2023-05-17T12:07:21.428Z,17.21
2023-05-17T12:08:21.394Z,16.68
2023-05-17T12:09:21.413Z,16.56
2023-05-17T12:10:21.384Z,16.35
2023-05-17T12:11:21.358Z,16.35
2023-05-17T12:12:21.365Z,16.14
2023-05-17T12:13:21.358Z,16.53
2023-05-17T12:14:21.348Z,16.93
2023-05-17T12:15:21.358Z,16.81
2023-05-17T12:16:21.328Z,17.64
2023-05-17T12:17:21.280Z,18.25
2023-05-17T12:18:21.342Z,17.75
2023-05-17T12:19:21.413Z,18.42
2023-05-17T12:20:21.353Z,19.33
2023-05-17T12:21:21.236Z,20.16
2023-05-17T12:22:21.316Z,20.01
2023-05-17T12:23:21.202Z,19.99
2023-05-17T12:24:21.240Z,19.58
2023-05-17T12:25:21.185Z,19.16
2023-05-17T12:26:21.288Z,18.02
2023-05-17T12:27:21.167Z,17.08
2023-05-17T12:28:21.306Z,16.56
2023-05-17T12:29:21.143Z,16.45
2023-05-17T12:30:21.173Z,16.31
2023-05-17T12:31:21.096Z,16.00
2023-05-17T12:32:21.149Z,16.27
2023-05-17T12:33:21.148Z,15.94
2023-05-17T12:34:21.085Z,15.54
2023-05-17T12:35:21.247Z,15.59
2023-05-17T12:36:21.090Z,15.71
2023-05-17T12:37:21.028Z,16.41
2023-05-17T12:38:20.989Z,17.38
2023-05-17T12:39:21.000Z,18.23
2023-05-17T12:40:20.989Z,18.51
2023-05-17T12:41:20.967Z,19.62
2023-05-17T12:42:20.934Z,19.19
2023-05-17T12:43:20.968Z,19.04
2023-05-17T12:44:20.960Z,18.11
2023-05-17T12:45:20.905Z,17.08
2023-05-17T12:46:20.942Z,16.67
2023-05-17T12:47:20.905Z,16.45
2023-05-17T12:48:20.882Z,16.57
2023-05-17T12:49:20.964Z,17.30
2023-05-17T12:50:20.864Z,17.40
2023-05-17T12:51:20.852Z,17.95
2023-05-17T12:52:20.837Z,18.47
2023-05-17T12:53:20.809Z,19.18
2023-05-17T12:54:20.765Z,19.68
2023-05-17T12:55:20.787Z,19.59
2023-05-17T12:56:20.769Z,19.33
2023-05-17T12:57:20.789Z,19.56
2023-05-17T12:58:20.720Z,19.08
2023-05-17T12:59:20.800Z,18.50
2023-05-17T13:00:20.720Z,17.68
2023-05-17T13:01:20.686Z,17.14
2023-05-17T13:02:20.754Z,17.58
2023-05-17T13:03:20.797Z,17.08
2023-05-17T13:04:20.695Z,16.60
2023-05-17T13:05:20.640Z,16.41